createdAt,value
2022-08-25T00:00:42.771Z,19.85
2022-08-25T00:04:08.850Z,19.84
2022-08-25T00:07:31.312Z,19.80
2022-08-25T00:11:03.068Z,19.78
2022-08-25T00:14:28.064Z,19.75
2022-08-25T00:17:50.541Z,19.74
2022-08-25T00:21:13.431Z,19.68
2022-08-25T00:24:35.130Z,19.65
2022-08-25T00:27:59.168Z,19.61
2022-08-25T00:31:24.116Z,19.59
2022-08-25T00:35:00.822Z,19.56
2022-08-25T00:38:22.453Z,19.55
2022-08-25T00:41:44.875Z,19.53
2022-08-25T00:45:09.932Z,19.53
2022-08-25T00:48:31.820Z,19.53
2022-08-25T00:51:59.996Z,19.51
2022-08-25T00:55:26.656Z,19.49
2022-08-25T00:58:48.770Z,19.49
2022-08-25T01:02:13.955Z,19.48
2022-08-25T01:05:36.875Z,19.44
2022-08-25T01:08:58.670Z,19.44
2022-08-25T01:12:21.411Z,19.42
2022-08-25T01:15:43.633Z,19.41
2022-08-25T01:19:09.146Z,19.38
2022-08-25T01:22:39.000Z,19.37
2022-08-25T01:26:06.731Z,19.37
2022-08-25T01:29:29.185Z,19.35
2022-08-25T01:32:50.922Z,19.34
2022-08-25T01:36:12.550Z,19.34
2022-08-25T01:39:37.347Z,19.34
2022-08-25T01:43:07.874Z,19.34
2022-08-25T01:46:29.844Z,19.36
2022-08-25T01:49:51.451Z,19.41
2022-08-25T01:53:20.318Z,19.41
2022-08-25T01:56:43.961Z,19.42
2022-08-25T02:00:06.838Z,19.42
2022-08-25T02:03:32.751Z,19.45
2022-08-25T02:06:54.689Z,19.47
2022-08-25T02:10:16.597Z,19.48
2022-08-25T02:13:40.464Z,19.48
2022-08-25T02:17:02.142Z,19.45
2022-08-25T02:20:24.778Z,19.47
2022-08-25T02:23:46.649Z,19.52
2022-08-25T02:27:08.572Z,19.56
2022-08-25T02:30:31.936Z,19.58
2022-08-25T02:33:55.159Z,19.62
2022-08-25T02:37:17.246Z,19.63
2022-08-25T02:40:39.091Z,19.59
2022-08-25T02:44:01.862Z,19.59
2022-08-25T02:47:26.923Z,19.64
2022-08-25T02:50:51.643Z,19.65
2022-08-25T02:54:14.141Z,19.66
2022-08-25T02:57:36.119Z,19.67
2022-08-25T03:00:57.935Z,19.70
2022-08-25T03:04:20.890Z,19.73
2022-08-25T03:07:43.662Z,19.74
2022-08-25T03:11:07.285Z,19.76
2022-08-25T03:14:28.859Z,19.68
2022-08-25T03:17:50.705Z,19.66
2022-08-25T03:21:15.784Z,19.65
2022-08-25T03:24:38.047Z,19.67
2022-08-25T03:27:59.761Z,19.72
2022-08-25T03:31:22.092Z,19.74
2022-08-25T03:34:43.730Z,19.73
2022-08-25T03:38:07.518Z,19.75
2022-08-25T03:41:32.608Z,19.78
2022-08-25T03:44:54.671Z,19.76
2022-08-25T03:48:18.125Z,19.70
2022-08-25T03:51:42.974Z,19.69
2022-08-25T03:55:08.811Z,19.69
2022-08-25T03:58:30.609Z,19.72
2022-08-25T04:01:55.112Z,19.74
2022-08-25T04:05:17.260Z,19.74
2022-08-25T04:08:39.569Z,19.77
2022-08-25T04:12:03.410Z,19.79
2022-08-25T04:15:28.539Z,19.79
2022-08-25T04:18:52.865Z,19.78
2022-08-25T04:22:14.893Z,19.77
2022-08-25T04:25:36.781Z,19.78
2022-08-25T04:29:01.421Z,19.77
2022-08-25T04:32:23.085Z,19.74
2022-08-25T04:35:48.798Z,19.74
2022-08-25T04:39:10.893Z,19.71
2022-08-25T04:42:32.943Z,19.64
2022-08-25T04:45:56.557Z,19.64
2022-08-25T04:49:18.193Z,19.66
2022-08-25T04:52:40.358Z,19.73
2022-08-25T04:56:03.926Z,19.76
2022-08-25T04:59:27.369Z,19.80
2022-08-25T05:02:55.457Z,19.76
2022-08-25T05:06:17.295Z,19.70
2022-08-25T05:09:39.324Z,19.74
2022-08-25T05:13:01.230Z,19.72
2022-08-25T05:16:25.040Z,19.72
2022-08-25T05:19:48.371Z,19.78
2022-08-25T05:23:10.644Z,19.82
2022-08-25T05:26:33.978Z,19.89
2022-08-25T05:29:55.461Z,19.92
2022-08-25T05:33:18.481Z,19.98
2022-08-25T05:36:43.588Z,20.00
2022-08-25T05:40:07.296Z,20.03
2022-08-25T05:43:29.010Z,20.07
2022-08-25T05:46:51.423Z,20.11
2022-08-25T05:50:13.744Z,20.14
2022-08-25T05:53:38.417Z,20.17
2022-08-25T05:57:01.155Z,20.19
2022-08-25T06:00:23.620Z,20.22
2022-08-25T06:03:44.746Z,20.25
2022-08-25T06:07:06.622Z,20.27
2022-08-25T06:10:30.194Z,20.34
2022-08-25T06:13:52.266Z,20.37
2022-08-25T06:17:14.391Z,20.44
2022-08-25T06:20:37.145Z,20.45
2022-08-25T06:23:59.062Z,20.47
2022-08-25T06:27:22.479Z,20.50
2022-08-25T06:30:44.569Z,20.54
2022-08-25T06:34:06.460Z,20.56
2022-08-25T06:37:28.039Z,20.58
2022-08-25T06:40:52.108Z,20.62
2022-08-25T06:44:15.072Z,20.63
2022-08-25T06:47:36.984Z,20.67
2022-08-25T06:50:58.629Z,20.72
2022-08-25T06:54:20.650Z,20.79
2022-08-25T06:57:42.300Z,20.81
2022-08-25T07:01:15.812Z,20.85
2022-08-25T07:04:42.300Z,20.87
2022-08-25T07:08:04.532Z,20.90
2022-08-25T07:11:26.507Z,20.93
2022-08-25T07:15:03.460Z,20.99
2022-08-25T07:18:27.146Z,21.01
2022-08-25T07:21:52.163Z,21.04
2022-08-25T07:25:14.322Z,21.10
2022-08-25T07:28:39.905Z,21.13
2022-08-25T07:32:09.334Z,21.21
2022-08-25T07:35:37.491Z,21.24
2022-08-25T07:38:59.779Z,21.24
2022-08-25T07:42:21.980Z,21.26
2022-08-25T07:45:49.184Z,21.27
2022-08-25T07:49:16.704Z,21.32
2022-08-25T07:52:40.515Z,21.36
2022-08-25T07:59:30.071Z,21.37
2022-08-25T08:02:52.108Z,21.41
2022-08-25T08:06:17.760Z,21.49
2022-08-25T08:09:41.763Z,21.57
2022-08-25T08:13:07.118Z,21.66
2022-08-25T08:16:31.032Z,21.73
2022-08-25T08:19:54.476Z,21.65
2022-08-25T08:23:16.779Z,21.68
2022-08-25T08:26:57.389Z,21.71
2022-08-25T08:30:21.627Z,21.75
2022-08-25T08:33:45.445Z,21.75
2022-08-25T08:37:07.675Z,21.80
2022-08-25T08:40:37.501Z,21.84
2022-08-25T08:44:08.897Z,21.88
2022-08-25T08:47:44.668Z,21.95
2022-08-25T08:51:20.635Z,22.02
2022-08-25T08:54:48.204Z,22.07
2022-08-25T08:58:15.530Z,22.10
2022-08-25T09:01:46.819Z,22.19
2022-08-25T09:05:19.237Z,22.26
2022-08-25T09:08:44.942Z,22.35
2022-08-25T09:12:13.392Z,22.40
2022-08-25T09:15:59.230Z,22.44
2022-08-25T09:19:41.905Z,22.52
2022-08-25T09:23:15.520Z,22.58
2022-08-25T09:26:49.829Z,22.63
2022-08-25T09:30:14.502Z,22.73
2022-08-25T09:33:36.538Z,22.80
2022-08-25T09:37:00.234Z,22.85
2022-08-25T09:40:23.194Z,22.87
2022-08-25T09:43:53.346Z,22.94
2022-08-25T09:47:23.269Z,22.90
2022-08-25T09:50:46.775Z,23.01
2022-08-25T09:54:21.023Z,23.09
2022-08-25T09:57:52.912Z,23.18
2022-08-25T10:01:17.631Z,23.22
2022-08-25T10:04:41.201Z,23.19
2022-08-25T10:08:05.698Z,23.27
2022-08-25T10:11:39.310Z,23.36
2022-08-25T10:15:01.134Z,23.46
2022-08-25T10:18:26.674Z,23.51
2022-08-25T10:22:04.742Z,23.53
2022-08-25T10:25:31.271Z,23.58
2022-08-25T10:29:07.518Z,23.60
2022-08-25T10:32:44.696Z,23.61
2022-08-25T10:36:15.793Z,23.64
2022-08-25T10:39:44.408Z,23.70
2022-08-25T10:43:11.310Z,23.73
2022-08-25T10:46:49.971Z,23.70
2022-08-25T10:50:30.507Z,23.77
2022-08-25T10:53:58.326Z,23.81
2022-08-25T10:57:29.295Z,23.95
2022-08-25T11:01:00.462Z,23.96
2022-08-25T11:04:29.730Z,24.02
2022-08-25T11:08:02.030Z,24.04
2022-08-25T11:11:36.865Z,24.10
2022-08-25T11:15:03.230Z,24.19
2022-08-25T11:18:31.782Z,24.17
2022-08-25T11:22:02.974Z,24.24
2022-08-25T11:25:30.419Z,24.28
2022-08-25T11:28:59.922Z,24.28
2022-08-25T11:32:24.799Z,24.33
2022-08-25T11:35:54.389Z,24.33
2022-08-25T11:39:34.002Z,24.35
2022-08-25T11:43:08.494Z,24.40
2022-08-25T11:46:47.756Z,24.45
2022-08-25T11:50:30.267Z,24.47
2022-08-25T11:54:14.662Z,24.51
2022-08-25T11:57:39.423Z,24.56
2022-08-25T12:01:02.569Z,24.60
2022-08-25T12:04:44.440Z,24.65
2022-08-25T12:08:25.749Z,24.69
2022-08-25T12:11:51.327Z,24.75
2022-08-25T12:15:23.566Z,24.82
2022-08-25T12:18:46.865Z,24.84
2022-08-25T12:22:55.160Z,24.91
2022-08-25T12:26:28.902Z,24.93
2022-08-25T12:29:54.855Z,25.02
2022-08-25T12:33:30.229Z,25.10
2022-08-25T12:37:00.770Z,25.20
2022-08-25T12:40:27.859Z,25.28
2022-08-25T12:43:52.395Z,25.34
2022-08-25T12:47:33.818Z,25.41
2022-08-25T12:51:01.785Z,25.46
2022-08-25T12:54:33.277Z,25.49
2022-08-25T12:58:01.398Z,25.54
2022-08-25T13:01:36.350Z,25.60
2022-08-25T13:05:40.925Z,25.67
2022-08-25T13:09:59.676Z,25.71
2022-08-25T13:13:49.156Z,25.76
2022-08-25T13:17:12.103Z,25.76
2022-08-25T13:20:35.870Z,25.79
2022-08-25T13:24:04.637Z,25.81
2022-08-25T13:27:31.220Z,25.88
2022-08-25T13:31:07.626Z,25.95
2022-08-25T13:34:35.120Z,26.02
2022-08-25T13:38:13.791Z,26.08
2022-08-25T13:41:35.453Z,26.11
2022-08-25T13:45:00.374Z,26.19
2022-08-25T13:48:35.558Z,26.25
2022-08-25T13:51:57.609Z,26.29
2022-08-25T13:55:27.611Z,26.29
2022-08-25T13:58:50.368Z,26.31
2022-08-25T14:02:15.277Z,26.30
2022-08-25T14:05:45.611Z,26.27
2022-08-25T14:09:16.652Z,26.30
2022-08-25T14:12:41.600Z,26.26
2022-08-25T14:16:13.759Z,26.24
2022-08-25T14:19:45.814Z,26.29
2022-08-25T14:23:16.294Z,26.32
2022-08-25T14:26:53.928Z,26.36
2022-08-25T14:30:16.239Z,26.36
2022-08-25T14:33:55.303Z,26.40
2022-08-25T14:37:21.012Z,26.47
2022-08-25T14:40:48.078Z,26.52
2022-08-25T14:44:11.604Z,26.60
2022-08-25T14:47:33.586Z,26.68
2022-08-25T14:50:57.793Z,26.77
2022-08-25T14:54:23.677Z,26.87
2022-08-25T14:57:45.743Z,27.05
2022-08-25T15:01:08.390Z,27.85
2022-08-25T15:04:31.356Z,28.83
2022-08-25T15:08:12.245Z,29.44
2022-08-25T15:11:41.458Z,29.88
2022-08-25T15:15:04.346Z,30.24
2022-08-25T15:18:26.931Z,30.42
2022-08-25T15:21:49.655Z,30.48
2022-08-25T15:25:11.601Z,30.55
2022-08-25T15:28:34.710Z,30.66
2022-08-25T15:31:57.265Z,30.61
2022-08-25T15:35:19.750Z,30.57
2022-08-25T15:38:44.444Z,30.44
2022-08-25T15:42:07.022Z,30.41
2022-08-25T15:45:30.348Z,30.24
2022-08-25T15:48:52.700Z,30.10
2022-08-25T15:52:14.608Z,29.99
2022-08-25T15:55:39.634Z,29.68
2022-08-25T15:59:08.659Z,29.35
2022-08-25T16:02:33.356Z,29.23
2022-08-25T16:05:55.102Z,29.28
2022-08-25T16:09:16.536Z,29.28
2022-08-25T16:12:45.455Z,29.25
2022-08-25T16:16:08.052Z,29.19
2022-08-25T16:19:33.446Z,29.18
2022-08-25T16:23:00.511Z,29.17
2022-08-25T16:26:22.737Z,29.24
2022-08-25T16:29:45.609Z,29.24
2022-08-25T16:33:08.417Z,29.24
2022-08-25T16:36:32.782Z,29.16
2022-08-25T16:39:54.714Z,29.17
2022-08-25T16:43:17.715Z,29.14
2022-08-25T16:46:40.790Z,29.10
2022-08-25T16:50:03.565Z,29.05
2022-08-25T16:53:44.926Z,28.91
2022-08-25T16:57:10.633Z,28.86
2022-08-25T17:00:32.601Z,28.77
2022-08-25T17:03:55.841Z,28.58
2022-08-25T17:07:23.750Z,28.44
2022-08-25T17:10:47.851Z,28.34
2022-08-25T17:14:11.346Z,28.25
2022-08-25T17:17:36.010Z,28.13
2022-08-25T17:21:02.043Z,28.02
2022-08-25T17:24:29.354Z,27.93
2022-08-25T17:27:55.040Z,27.83
2022-08-25T17:31:17.227Z,27.72
2022-08-25T17:34:39.121Z,27.62
2022-08-25T17:38:00.903Z,27.48
2022-08-25T17:41:22.915Z,27.35
2022-08-25T17:44:46.923Z,27.25
2022-08-25T17:48:09.970Z,27.14
2022-08-25T17:51:32.040Z,27.01
2022-08-25T17:54:55.099Z,26.88
2022-08-25T17:58:21.250Z,26.72
2022-08-25T18:01:44.544Z,26.58
2022-08-25T18:05:07.766Z,26.46
2022-08-25T18:08:34.868Z,26.30
2022-08-25T18:11:57.376Z,26.15
2022-08-25T18:15:19.835Z,25.97
2022-08-25T18:18:42.781Z,25.83
2022-08-25T18:22:06.208Z,25.68
2022-08-25T18:25:28.834Z,25.53
2022-08-25T18:28:50.777Z,25.39
2022-08-25T18:32:13.206Z,25.24
2022-08-25T18:35:36.626Z,25.10
2022-08-25T18:39:17.076Z,24.97
2022-08-25T18:42:38.627Z,24.81
2022-08-25T18:46:00.756Z,24.69
2022-08-25T18:49:22.770Z,24.59
2022-08-25T18:52:50.308Z,24.47
2022-08-25T18:56:17.078Z,24.34
2022-08-25T18:59:39.460Z,24.26
2022-08-25T19:03:02.259Z,24.17
2022-08-25T19:06:24.781Z,24.06
2022-08-25T19:09:47.901Z,23.96
2022-08-25T19:13:13.048Z,23.85
2022-08-25T19:16:38.326Z,23.77
2022-08-25T19:20:00.105Z,23.70
2022-08-25T19:23:23.231Z,23.63
2022-08-25T19:26:46.646Z,23.55
2022-08-25T19:30:11.593Z,23.45
2022-08-25T19:33:43.941Z,23.37
2022-08-25T19:37:07.408Z,23.30
2022-08-25T19:40:30.906Z,23.23
2022-08-25T19:43:56.379Z,23.15
2022-08-25T19:47:20.294Z,23.07
2022-08-25T19:50:43.654Z,22.99
2022-08-25T19:54:05.913Z,22.93
2022-08-25T19:57:42.264Z,22.87
2022-08-25T20:01:07.392Z,22.84
2022-08-25T20:04:29.578Z,22.82
2022-08-25T20:07:52.951Z,22.76
2022-08-25T20:11:14.821Z,22.69
2022-08-25T20:14:36.644Z,22.63
2022-08-25T20:18:00.788Z,22.58
2022-08-25T20:21:25.117Z,22.53
2022-08-25T20:24:51.040Z,22.47
2022-08-25T20:28:18.669Z,22.42
2022-08-25T20:31:41.039Z,22.37
2022-08-25T20:35:09.780Z,22.31
2022-08-25T20:38:35.259Z,22.26
2022-08-25T20:41:57.445Z,22.21
2022-08-25T20:45:21.877Z,22.19
2022-08-25T20:48:45.723Z,22.18
2022-08-25T20:52:08.866Z,22.12
2022-08-25T20:55:31.486Z,22.07
2022-08-25T20:58:53.583Z,22.05
2022-08-25T21:02:15.378Z,22.02
2022-08-25T21:05:40.470Z,21.97
2022-08-25T21:09:06.319Z,21.92
2022-08-25T21:12:34.791Z,21.88
2022-08-25T21:15:56.890Z,21.84
2022-08-25T21:19:26.364Z,21.80
2022-08-25T21:22:55.791Z,21.75
2022-08-25T21:26:21.954Z,21.71
2022-08-25T21:29:44.608Z,21.66
2022-08-25T21:33:13.176Z,21.62
2022-08-25T21:36:35.748Z,21.57
2022-08-25T21:39:58.106Z,21.54
2022-08-25T21:43:21.487Z,21.50
2022-08-25T21:46:53.903Z,21.50
2022-08-25T21:50:16.293Z,21.47
2022-08-25T21:53:38.937Z,21.44
2022-08-25T21:57:02.785Z,21.41
2022-08-25T22:00:26.122Z,21.40
2022-08-25T22:03:48.633Z,21.38
2022-08-25T22:07:10.900Z,21.39
2022-08-25T22:10:32.422Z,21.37
2022-08-25T22:13:55.035Z,21.38
2022-08-25T22:17:21.161Z,21.37
2022-08-25T22:20:46.482Z,21.38
2022-08-25T22:24:08.812Z,21.37
2022-08-25T22:27:31.715Z,21.37
2022-08-25T22:30:53.858Z,21.39
2022-08-25T22:34:17.489Z,21.40
2022-08-25T22:37:39.533Z,21.40
2022-08-25T22:41:03.474Z,21.36
2022-08-25T22:44:26.190Z,21.35
2022-08-25T22:47:48.561Z,21.34
2022-08-25T22:51:14.053Z,21.32
2022-08-25T22:54:37.565Z,21.33
2022-08-25T22:57:59.721Z,21.32
2022-08-25T23:01:22.258Z,21.32
2022-08-25T23:04:43.854Z,21.31
2022-08-25T23:08:07.753Z,21.31
2022-08-25T23:11:29.878Z,21.32
2022-08-25T23:14:53.326Z,21.33
2022-08-25T23:18:15.755Z,21.34
2022-08-25T23:21:56.859Z,21.32
2022-08-25T23:25:21.083Z,21.29
2022-08-25T23:28:43.145Z,21.27
2022-08-25T23:32:07.346Z,21.24
2022-08-25T23:35:30.073Z,21.20
2022-08-25T23:38:52.027Z,21.19
2022-08-25T23:42:15.182Z,21.17
2022-08-25T23:45:37.202Z,21.15
2022-08-25T23:48:59.429Z,21.16
2022-08-25T23:52:21.627Z,21.15
2022-08-25T23:55:48.874Z,21.12
2022-08-25T23:59:16.488Z,21.09
